createdAt,value
2023-03-18T00:00:23.734Z,44.93
2023-03-18T00:02:50.375Z,45.02
2023-03-18T00:05:17.365Z,44.61
2023-03-18T00:07:44.024Z,44.50
2023-03-18T00:10:12.144Z,44.78
2023-03-18T00:12:39.704Z,45.05
2023-03-18T00:15:07.914Z,44.93
2023-03-18T00:17:35.314Z,44.89
2023-03-18T00:20:06.209Z,44.71
2023-03-18T00:22:36.712Z,45.29
2023-03-18T00:25:05.356Z,45.13
2023-03-18T00:27:32.102Z,45.02
2023-03-18T00:29:59.195Z,44.86
2023-03-18T00:32:26.869Z,45.07
2023-03-18T00:34:54.062Z,45.30
2023-03-18T00:37:30.658Z,45.28
2023-03-18T00:40:06.409Z,45.71
2023-03-18T00:42:39.280Z,45.32
2023-03-18T00:45:07.714Z,45.62
2023-03-18T00:47:34.657Z,45.88
2023-03-18T00:50:01.782Z,46.30
2023-03-18T00:52:30.081Z,46.32
2023-03-18T00:54:58.485Z,46.88
2023-03-18T00:57:25.500Z,46.65
2023-03-18T00:59:52.272Z,46.79
2023-03-18T01:02:19.317Z,46.68
2023-03-18T01:04:45.931Z,46.91
2023-03-18T01:07:13.602Z,46.81
2023-03-18T01:09:40.993Z,46.61
2023-03-18T01:12:08.966Z,46.65
2023-03-18T01:14:36.596Z,46.72
2023-03-18T01:17:03.678Z,47.10
2023-03-18T01:19:30.656Z,46.99
2023-03-18T01:21:57.422Z,47.35
2023-03-18T01:24:24.195Z,47.76
2023-03-18T01:26:50.855Z,47.88
2023-03-18T01:29:18.279Z,48.24
2023-03-18T01:31:45.810Z,48.38
2023-03-18T01:34:12.605Z,48.60
2023-03-18T01:36:39.282Z,48.82
2023-03-18T01:39:06.646Z,49.01
2023-03-18T01:41:33.424Z,49.68
2023-03-18T01:44:02.345Z,49.22
2023-03-18T01:46:39.599Z,49.81
2023-03-18T01:49:14.228Z,49.91
2023-03-18T01:51:43.785Z,50.00
2023-03-18T01:54:12.528Z,50.24
2023-03-18T01:56:40.460Z,50.28
2023-03-18T01:59:08.095Z,50.14
2023-03-18T02:01:39.413Z,49.95
2023-03-18T02:04:07.726Z,49.86
2023-03-18T02:06:34.839Z,49.89
2023-03-18T02:09:01.848Z,49.72
2023-03-18T02:11:30.924Z,50.32
2023-03-18T02:13:57.854Z,50.15
2023-03-18T02:16:27.557Z,50.24
2023-03-18T02:19:00.911Z,50.58
2023-03-18T02:21:42.835Z,50.74
2023-03-18T02:24:17.441Z,50.67
2023-03-18T02:26:57.291Z,50.68
2023-03-18T02:29:24.940Z,50.87
2023-03-18T02:31:51.997Z,50.63
2023-03-18T02:34:19.069Z,50.73
2023-03-18T02:36:46.327Z,50.88
2023-03-18T02:39:14.832Z,50.92
2023-03-18T02:41:41.566Z,50.74
2023-03-18T02:44:08.979Z,50.74
2023-03-18T02:46:35.746Z,50.67
2023-03-18T02:49:03.743Z,50.94
2023-03-18T02:51:30.894Z,51.03
2023-03-18T02:54:01.100Z,50.88
2023-03-18T02:56:27.801Z,51.10
2023-03-18T02:58:54.452Z,50.74
2023-03-18T03:01:22.444Z,50.86
2023-03-18T03:03:49.434Z,50.86
2023-03-18T03:06:16.221Z,50.88
2023-03-18T03:08:42.881Z,51.01
2023-03-18T03:11:10.423Z,50.87
2023-03-18T03:13:38.249Z,51.15
2023-03-18T03:16:05.171Z,50.85
2023-03-18T03:18:31.888Z,51.13
2023-03-18T03:20:58.570Z,50.83
2023-03-18T03:23:25.523Z,51.08
2023-03-18T03:25:52.161Z,50.84
2023-03-18T03:28:19.061Z,51.00
2023-03-18T03:30:46.232Z,51.10
2023-03-18T03:33:13.252Z,51.00
2023-03-18T03:35:40.266Z,50.83
2023-03-18T03:38:06.961Z,50.82
2023-03-18T03:40:34.197Z,50.93
2023-03-18T03:43:00.984Z,50.84
2023-03-18T03:45:27.764Z,51.00
2023-03-18T03:47:54.539Z,51.07
2023-03-18T03:50:21.876Z,51.25
2023-03-18T03:52:49.477Z,50.87
2023-03-18T03:55:18.465Z,50.82
2023-03-18T03:57:46.028Z,50.86
2023-03-18T04:00:14.404Z,51.15
2023-03-18T04:02:43.590Z,50.89
2023-03-18T04:05:11.764Z,50.87
2023-03-18T04:07:38.961Z,50.82
2023-03-18T04:10:06.243Z,50.89
2023-03-18T04:12:32.883Z,51.09
2023-03-18T04:14:59.807Z,50.92
2023-03-18T04:17:26.432Z,51.28
2023-03-18T04:19:53.189Z,51.14
2023-03-18T04:22:19.902Z,51.16
2023-03-18T04:24:46.621Z,51.29
2023-03-18T04:27:13.373Z,51.03
2023-03-18T04:29:40.058Z,51.02
2023-03-18T04:32:06.980Z,51.14
2023-03-18T04:34:33.853Z,51.59
2023-03-18T04:37:00.495Z,51.68
2023-03-18T04:39:27.128Z,51.75
2023-03-18T04:41:54.859Z,51.73
2023-03-18T04:44:21.530Z,51.24
2023-03-18T04:46:48.229Z,51.79
2023-03-18T04:49:14.953Z,51.43
2023-03-18T04:51:41.725Z,51.96
2023-03-18T04:54:08.516Z,51.67
2023-03-18T04:56:35.450Z,51.76
2023-03-18T04:59:02.160Z,51.76
2023-03-18T05:01:28.846Z,51.71
2023-03-18T05:03:55.529Z,51.80
2023-03-18T05:06:23.555Z,51.65
2023-03-18T05:08:50.422Z,51.53
2023-03-18T05:11:18.075Z,52.12
2023-03-18T05:13:44.874Z,51.90
2023-03-18T05:16:11.543Z,52.35
2023-03-18T05:18:39.227Z,52.16
2023-03-18T05:21:14.709Z,52.30
2023-03-18T05:23:41.662Z,51.97
2023-03-18T05:26:08.331Z,51.84
2023-03-18T05:28:35.019Z,52.32
2023-03-18T05:31:11.759Z,51.99
2023-03-18T05:33:38.413Z,51.95
2023-03-18T05:36:05.237Z,51.87
2023-03-18T05:38:31.901Z,52.20
2023-03-18T05:40:58.504Z,51.98
2023-03-18T05:43:26.431Z,52.26
2023-03-18T05:45:53.181Z,52.31
2023-03-18T05:48:19.998Z,52.08
2023-03-18T05:50:47.092Z,52.31
2023-03-18T05:53:16.441Z,52.36
2023-03-18T05:55:43.492Z,51.98
2023-03-18T05:58:10.396Z,52.06
2023-03-18T06:00:37.822Z,52.53
2023-03-18T06:03:04.809Z,52.55
2023-03-18T06:05:31.914Z,52.60
2023-03-18T06:07:59.605Z,52.31
2023-03-18T06:10:26.664Z,52.42
2023-03-18T06:12:55.080Z,52.32
2023-03-18T06:15:22.689Z,52.28
2023-03-18T06:17:49.380Z,52.27
2023-03-18T06:20:16.249Z,52.31
2023-03-18T06:22:43.913Z,52.57
2023-03-18T06:25:11.070Z,52.37
2023-03-18T06:27:37.867Z,52.49
2023-03-18T06:30:05.700Z,52.52
2023-03-18T06:32:33.185Z,52.78
2023-03-18T06:35:00.213Z,52.74
2023-03-18T06:37:26.962Z,52.70
2023-03-18T06:39:53.793Z,52.81
2023-03-18T06:42:20.523Z,52.52
2023-03-18T06:44:50.908Z,52.59
2023-03-18T06:47:18.577Z,52.37
2023-03-18T06:49:46.119Z,52.53
2023-03-18T06:52:13.768Z,52.66
2023-03-18T06:54:41.217Z,52.36
2023-03-18T06:57:08.670Z,52.63
2023-03-18T06:59:35.831Z,52.57
2023-03-18T07:02:03.303Z,52.70
2023-03-18T07:04:29.979Z,52.60
2023-03-18T07:06:57.961Z,52.67
2023-03-18T07:09:24.822Z,52.71
2023-03-18T07:11:51.446Z,52.45
2023-03-18T07:14:18.563Z,52.78
2023-03-18T07:16:46.148Z,52.54
2023-03-18T07:19:12.855Z,52.97
2023-03-18T07:21:40.909Z,52.56
2023-03-18T07:24:07.575Z,52.69
2023-03-18T07:26:34.574Z,52.49
2023-03-18T07:29:01.921Z,52.73
2023-03-18T07:31:28.680Z,52.94
2023-03-18T07:33:55.336Z,53.00
2023-03-18T07:36:21.981Z,52.83
2023-03-18T07:38:48.628Z,52.74
2023-03-18T07:41:16.052Z,52.75
2023-03-18T07:43:43.799Z,52.93
2023-03-18T07:46:10.547Z,52.85
2023-03-18T07:48:37.274Z,53.04
2023-03-18T07:51:04.070Z,53.21
2023-03-18T07:53:30.850Z,53.03
2023-03-18T07:55:57.489Z,53.23
2023-03-18T07:58:24.829Z,53.39
2023-03-18T08:00:52.718Z,53.32
2023-03-18T08:03:19.375Z,53.42
2023-03-18T08:05:46.120Z,53.30
2023-03-18T08:08:12.832Z,53.42
2023-03-18T08:10:39.540Z,53.62
2023-03-18T08:13:06.360Z,53.44
2023-03-18T08:15:33.202Z,53.78
2023-03-18T08:18:00.141Z,53.97
2023-03-18T08:20:27.393Z,53.94
2023-03-18T08:22:54.057Z,53.87
2023-03-18T08:25:22.335Z,53.87
2023-03-18T08:27:49.054Z,53.92
2023-03-18T08:30:16.660Z,54.07
2023-03-18T08:32:43.594Z,53.70
2023-03-18T08:35:11.401Z,53.72
2023-03-18T08:37:38.103Z,53.91
2023-03-18T08:40:05.281Z,54.13
2023-03-18T08:42:31.962Z,53.98
2023-03-18T08:44:58.843Z,53.69
2023-03-18T08:47:25.471Z,53.74
2023-03-18T08:49:52.167Z,54.13
2023-03-18T08:52:19.327Z,53.83
2023-03-18T08:54:46.160Z,53.90
2023-03-18T08:57:12.949Z,53.72
2023-03-18T08:59:39.574Z,54.03
2023-03-18T09:02:06.238Z,54.07
2023-03-18T09:04:33.026Z,53.98
2023-03-18T09:07:01.712Z,54.11
2023-03-18T09:09:42.663Z,54.17
2023-03-18T09:12:09.594Z,54.48
2023-03-18T09:14:36.457Z,54.19
2023-03-18T09:17:03.175Z,54.54
2023-03-18T09:19:29.958Z,54.25
2023-03-18T09:21:56.637Z,54.39
2023-03-18T09:24:23.282Z,54.31
2023-03-18T09:26:49.912Z,54.41
2023-03-18T09:29:16.665Z,54.40
2023-03-18T09:31:43.406Z,54.01
2023-03-18T09:34:13.590Z,52.51
2023-03-18T09:36:41.553Z,52.86
2023-03-18T09:39:09.308Z,53.53
2023-03-18T09:41:39.045Z,53.25
2023-03-18T09:44:21.917Z,53.26
2023-03-18T09:46:57.797Z,53.70
2023-03-18T09:49:33.553Z,53.45
2023-03-18T09:52:09.957Z,53.78
2023-03-18T09:54:42.812Z,53.98
2023-03-18T09:57:13.243Z,53.64
2023-03-18T09:59:45.882Z,53.84
2023-03-18T10:02:22.582Z,53.40
2023-03-18T10:04:53.073Z,54.06
2023-03-18T10:07:23.081Z,53.67
2023-03-18T10:09:54.479Z,53.74
2023-03-18T10:12:32.255Z,53.61
2023-03-18T10:15:07.032Z,53.98
2023-03-18T10:17:41.932Z,53.83
2023-03-18T10:20:31.691Z,53.47
2023-03-18T10:22:58.339Z,52.62
2023-03-18T10:25:24.908Z,52.20
2023-03-18T10:27:57.650Z,52.20
2023-03-18T10:30:43.125Z,51.64
2023-03-18T10:33:17.997Z,51.66
2023-03-18T10:35:50.563Z,51.46
2023-03-18T10:38:20.016Z,51.49
2023-03-18T10:40:47.983Z,51.73
2023-03-18T10:43:17.696Z,52.05
2023-03-18T10:45:45.982Z,51.72
2023-03-18T10:48:12.554Z,51.38
2023-03-18T10:50:51.900Z,50.95
2023-03-18T10:53:26.269Z,50.78
2023-03-18T10:55:53.198Z,51.03
2023-03-18T10:58:20.767Z,50.43
2023-03-18T11:00:47.467Z,50.48
2023-03-18T11:03:19.374Z,50.32
2023-03-18T11:05:46.517Z,49.86
2023-03-18T11:08:34.731Z,49.86
2023-03-18T11:11:24.639Z,49.53
2023-03-18T11:13:56.079Z,49.62
2023-03-18T11:16:26.297Z,49.44
2023-03-18T11:18:53.239Z,49.26
2023-03-18T11:21:20.725Z,49.35
2023-03-18T11:24:07.792Z,48.84
2023-03-18T11:26:54.029Z,48.71
2023-03-18T11:29:26.200Z,48.41
2023-03-18T11:31:59.917Z,48.32
2023-03-18T11:34:27.558Z,48.48
2023-03-18T11:37:01.663Z,48.41
2023-03-18T11:39:29.764Z,48.13
2023-03-18T11:41:58.232Z,47.79
2023-03-18T11:44:29.026Z,47.97
2023-03-18T11:46:59.177Z,47.66
2023-03-18T11:49:27.471Z,47.81
2023-03-18T11:52:03.254Z,47.54
2023-03-18T11:54:29.952Z,47.71
2023-03-18T11:57:14.289Z,47.18
2023-03-18T11:59:43.666Z,47.09
2023-03-18T12:02:22.944Z,47.39
2023-03-18T12:05:05.786Z,46.83
2023-03-18T12:07:43.159Z,46.81
2023-03-18T12:10:28.624Z,46.54
2023-03-18T12:13:14.318Z,46.54
2023-03-18T12:15:41.321Z,46.62
2023-03-18T12:18:07.981Z,46.72
2023-03-18T12:20:48.235Z,46.56
2023-03-18T12:23:33.367Z,46.22
2023-03-18T12:26:02.849Z,46.24
2023-03-18T12:28:33.107Z,46.47
2023-03-18T12:31:17.601Z,46.18
2023-03-18T12:33:57.212Z,46.37
2023-03-18T12:36:44.579Z,46.29
2023-03-18T12:39:20.682Z,46.39
2023-03-18T12:41:47.281Z,46.04
2023-03-18T12:44:14.284Z,46.02
2023-03-18T12:46:49.298Z,46.06
2023-03-18T12:49:39.198Z,45.89
2023-03-18T12:52:08.445Z,46.31
2023-03-18T12:54:45.825Z,45.90
2023-03-18T12:57:23.830Z,46.41
2023-03-18T12:59:56.916Z,46.26
2023-03-18T13:02:39.604Z,45.77
2023-03-18T13:05:12.704Z,45.74
2023-03-18T13:07:46.375Z,45.66
2023-03-18T13:10:23.753Z,45.82
2023-03-18T13:12:55.769Z,45.60
2023-03-18T13:15:28.579Z,45.58
2023-03-18T13:17:57.454Z,45.46
2023-03-18T13:20:25.703Z,45.63
2023-03-18T13:22:52.320Z,45.61
2023-03-18T13:25:21.991Z,45.90
2023-03-18T13:27:49.817Z,45.59
2023-03-18T13:30:41.329Z,45.94
2023-03-18T13:33:11.300Z,45.49
2023-03-18T13:35:41.046Z,45.85
2023-03-18T13:38:07.881Z,45.69
2023-03-18T13:41:03.984Z,45.63
2023-03-18T13:43:32.376Z,45.35
2023-03-18T13:45:59.451Z,45.14
2023-03-18T13:48:37.021Z,45.11
2023-03-18T13:51:20.876Z,45.12
2023-03-18T13:53:50.865Z,45.30
2023-03-18T13:56:34.166Z,45.50
2023-03-18T13:59:07.861Z,45.19
2023-03-18T14:01:36.566Z,44.82
2023-03-18T14:07:22.243Z,44.85
2023-03-18T14:09:52.242Z,44.95
2023-03-18T14:12:39.609Z,44.96
2023-03-18T14:15:09.701Z,44.83
2023-03-18T14:17:47.981Z,44.61
2023-03-18T14:20:18.007Z,44.67
2023-03-18T14:23:07.830Z,44.84
2023-03-18T14:25:39.727Z,44.84
2023-03-18T14:28:13.665Z,44.93
2023-03-18T14:30:43.803Z,44.71
2023-03-18T14:33:13.211Z,45.10
2023-03-18T14:35:48.956Z,44.73
2023-03-18T14:38:20.964Z,45.00
2023-03-18T14:40:50.569Z,45.03
2023-03-18T14:43:26.476Z,45.01
2023-03-18T14:45:56.407Z,45.13
2023-03-18T14:48:31.164Z,45.23
2023-03-18T14:51:04.228Z,45.22
2023-03-18T14:53:30.886Z,45.26
2023-03-18T14:55:59.148Z,45.25
2023-03-18T14:58:26.769Z,45.23
2023-03-18T15:00:55.024Z,45.07
2023-03-18T15:03:46.295Z,45.10
2023-03-18T15:06:18.638Z,45.15
2023-03-18T15:09:01.077Z,45.02
2023-03-18T15:11:30.680Z,45.51
2023-03-18T15:14:00.182Z,45.27
2023-03-18T15:16:31.302Z,45.46
2023-03-18T15:18:58.329Z,45.34
2023-03-18T15:21:32.861Z,45.31
2023-03-18T15:24:03.997Z,45.03
2023-03-18T15:26:34.172Z,45.26
2023-03-18T15:29:02.051Z,45.58
2023-03-18T15:31:30.941Z,45.26
2023-03-18T15:34:24.432Z,45.29
2023-03-18T15:36:55.907Z,45.44
2023-03-18T15:39:32.555Z,45.70
2023-03-18T15:41:59.989Z,45.72
2023-03-18T15:44:29.306Z,45.63
2023-03-18T15:47:03.438Z,45.96
2023-03-18T15:49:30.043Z,45.99
2023-03-18T15:52:01.246Z,45.82
2023-03-18T15:54:30.126Z,45.86
2023-03-18T15:56:58.258Z,45.89
2023-03-18T15:59:32.627Z,45.94
2023-03-18T16:01:59.750Z,45.78
2023-03-18T16:04:31.021Z,45.71
2023-03-18T16:06:58.038Z,46.00
2023-03-18T16:09:25.421Z,45.81
2023-03-18T16:11:52.298Z,45.80
2023-03-18T16:14:20.870Z,46.05
2023-03-18T16:16:48.175Z,46.20
2023-03-18T16:19:34.162Z,45.80
2023-03-18T16:22:00.916Z,45.92
2023-03-18T16:24:27.705Z,45.59
2023-03-18T16:26:55.113Z,45.60
2023-03-18T16:29:28.875Z,45.98
2023-03-18T16:31:56.020Z,45.87
2023-03-18T16:34:22.829Z,45.79
2023-03-18T16:36:51.013Z,45.82
2023-03-18T16:39:22.023Z,45.65
2023-03-18T16:41:49.769Z,46.05
2023-03-18T16:44:18.079Z,45.66
2023-03-18T16:46:55.300Z,45.76
2023-03-18T16:49:33.460Z,45.97
2023-03-18T16:52:01.997Z,45.82
2023-03-18T16:54:29.954Z,45.82
2023-03-18T16:56:58.472Z,46.10
2023-03-18T16:59:29.765Z,45.86
2023-03-18T17:01:56.536Z,46.03
2023-03-18T17:04:28.843Z,46.16
2023-03-18T17:06:56.316Z,45.66
2023-03-18T17:09:23.691Z,45.73
2023-03-18T17:11:51.380Z,46.16
2023-03-18T17:14:38.806Z,45.84
2023-03-18T17:17:14.833Z,46.03
2023-03-18T17:19:41.719Z,46.20
2023-03-18T17:22:28.571Z,46.24
2023-03-18T17:24:55.218Z,45.79
2023-03-18T17:27:23.890Z,46.02
2023-03-18T17:29:50.695Z,45.88
2023-03-18T17:32:19.691Z,46.15
2023-03-18T17:34:47.423Z,45.76
2023-03-18T17:37:14.157Z,45.76
2023-03-18T17:39:41.092Z,45.70
2023-03-18T17:42:23.161Z,46.32
2023-03-18T17:44:49.979Z,46.26
2023-03-18T17:47:16.595Z,46.01
2023-03-18T17:49:43.230Z,46.21
2023-03-18T17:52:11.425Z,45.99
2023-03-18T17:54:38.173Z,46.08
2023-03-18T17:57:05.810Z,46.13
2023-03-18T17:59:33.445Z,45.78
2023-03-18T18:02:00.218Z,46.23
2023-03-18T18:04:27.641Z,46.01
2023-03-18T18:06:54.591Z,45.84
2023-03-18T18:09:21.977Z,45.54
2023-03-18T18:11:50.936Z,45.70
2023-03-18T18:14:26.222Z,45.64
2023-03-18T18:16:56.927Z,45.52
2023-03-18T18:19:23.686Z,45.48
2023-03-18T18:21:50.745Z,45.38
2023-03-18T18:24:25.543Z,45.41
2023-03-18T18:26:52.304Z,45.40
2023-03-18T18:29:20.821Z,45.40
2023-03-18T18:31:48.154Z,45.00
2023-03-18T18:34:15.608Z,45.14
2023-03-18T18:36:42.948Z,45.09
2023-03-18T18:39:10.044Z,45.27
2023-03-18T18:41:36.739Z,45.04
2023-03-18T18:44:03.400Z,45.19
2023-03-18T18:46:31.138Z,45.12
2023-03-18T18:48:58.046Z,44.73
2023-03-18T18:51:25.577Z,44.88
2023-03-18T18:53:53.746Z,44.68
2023-03-18T18:56:34.250Z,44.85
2023-03-18T18:59:01.850Z,44.56
2023-03-18T19:01:28.520Z,44.85
2023-03-18T19:03:55.721Z,44.91
2023-03-18T19:06:27.678Z,44.83
2023-03-18T19:08:54.680Z,44.68
2023-03-18T19:11:24.824Z,44.69
2023-03-18T19:13:52.038Z,44.41
2023-03-18T19:16:32.746Z,44.56
2023-03-18T19:19:00.094Z,44.58
2023-03-18T19:21:27.595Z,44.39
2023-03-18T19:23:55.632Z,44.66
2023-03-18T19:26:22.361Z,44.67
2023-03-18T19:28:57.574Z,44.82
2023-03-18T19:31:27.187Z,44.65
2023-03-18T19:33:54.145Z,44.85
2023-03-18T19:36:23.490Z,44.69
2023-03-18T19:38:51.063Z,44.71
2023-03-18T19:41:17.817Z,45.00
2023-03-18T19:43:44.656Z,45.07
2023-03-18T19:46:19.155Z,44.81
2023-03-18T19:48:46.130Z,44.92
2023-03-18T19:51:15.796Z,45.26
2023-03-18T19:53:44.073Z,44.88
2023-03-18T19:56:29.901Z,45.06
2023-03-18T19:58:58.492Z,45.36
2023-03-18T20:01:27.589Z,45.19
2023-03-18T20:03:57.319Z,45.46
2023-03-18T20:06:24.345Z,45.04
2023-03-18T20:08:51.481Z,45.09
2023-03-18T20:11:21.138Z,45.30
2023-03-18T20:13:48.081Z,45.52
2023-03-18T20:16:15.660Z,45.30
2023-03-18T20:18:42.970Z,45.13
2023-03-18T20:21:23.933Z,45.61
2023-03-18T20:23:51.856Z,45.42
2023-03-18T20:26:18.661Z,45.58
2023-03-18T20:28:45.934Z,45.27
2023-03-18T20:31:19.008Z,45.31
2023-03-18T20:33:48.166Z,45.70
2023-03-18T20:36:16.463Z,45.45
2023-03-18T20:38:44.995Z,45.78
2023-03-18T20:41:16.782Z,45.86
2023-03-18T20:43:44.358Z,45.80
2023-03-18T20:46:15.283Z,45.53
2023-03-18T20:48:42.335Z,45.48
2023-03-18T20:51:19.927Z,45.91
2023-03-18T20:53:48.514Z,45.56
2023-03-18T20:56:16.461Z,45.81
2023-03-18T20:58:43.282Z,45.58
2023-03-18T21:01:18.926Z,45.61
2023-03-18T21:03:46.273Z,46.06
2023-03-18T21:06:14.724Z,45.87
2023-03-18T21:08:41.729Z,46.02
2023-03-18T21:11:26.307Z,45.68
2023-03-18T21:13:53.464Z,46.07
2023-03-18T21:16:21.436Z,45.73
2023-03-18T21:18:49.914Z,45.61
2023-03-18T21:21:22.982Z,45.88
2023-03-18T21:23:49.766Z,45.81
2023-03-18T21:26:17.080Z,45.84
2023-03-18T21:28:44.040Z,45.73
2023-03-18T21:31:28.276Z,45.62
2023-03-18T21:33:57.616Z,45.97
2023-03-18T21:36:24.465Z,45.54
2023-03-18T21:38:51.179Z,45.89
2023-03-18T21:41:24.525Z,45.59
2023-03-18T21:43:51.442Z,45.50
2023-03-18T21:46:19.751Z,45.80
2023-03-18T21:48:46.755Z,45.66
2023-03-18T21:51:35.497Z,45.29
2023-03-18T21:54:04.240Z,45.36
2023-03-18T21:56:30.918Z,45.21
2023-03-18T21:58:57.814Z,44.99
2023-03-18T22:01:27.480Z,45.11
2023-03-18T22:03:54.586Z,44.83
2023-03-18T22:06:22.270Z,44.78
2023-03-18T22:08:49.033Z,44.86
2023-03-18T22:11:17.539Z,44.89
2023-03-18T22:13:44.710Z,44.49
2023-03-18T22:16:15.638Z,44.75
2023-03-18T22:18:43.306Z,44.76
2023-03-18T22:21:17.085Z,44.60
2023-03-18T22:23:44.667Z,44.57
2023-03-18T22:26:13.957Z,44.44
2023-03-18T22:28:40.849Z,44.76
2023-03-18T22:31:20.595Z,45.44
2023-03-18T22:33:47.953Z,45.15
2023-03-18T22:36:15.871Z,45.10
2023-03-18T22:38:42.931Z,44.87
2023-03-18T22:41:17.624Z,44.79
2023-03-18T22:43:44.437Z,44.79
2023-03-18T22:46:11.958Z,44.98
2023-03-18T22:48:38.790Z,44.78
2023-03-18T22:51:15.115Z,45.06
2023-03-18T22:53:42.740Z,45.22
2023-03-18T22:56:13.432Z,45.12
2023-03-18T22:58:40.091Z,45.13
2023-03-18T23:01:14.455Z,45.14
2023-03-18T23:03:44.067Z,44.95
2023-03-18T23:06:14.120Z,45.15
2023-03-18T23:08:40.777Z,45.48
2023-03-18T23:11:13.463Z,45.35
2023-03-18T23:13:41.954Z,45.20
2023-03-18T23:16:11.794Z,45.25
2023-03-18T23:18:38.554Z,45.48
2023-03-18T23:21:09.795Z,45.09
2023-03-18T23:23:36.442Z,45.33
2023-03-18T23:26:03.521Z,45.14
2023-03-18T23:28:30.207Z,45.72
2023-03-18T23:30:56.916Z,45.36
2023-03-18T23:33:23.612Z,45.48
2023-03-18T23:35:50.332Z,45.73
2023-03-18T23:38:17.097Z,45.64
2023-03-18T23:40:44.674Z,46.14
2023-03-18T23:43:11.397Z,46.00
2023-03-18T23:45:39.004Z,46.11
2023-03-18T23:48:06.378Z,46.35
2023-03-18T23:50:33.522Z,46.34
2023-03-18T23:53:00.684Z,46.20
2023-03-18T23:55:34.453Z,46.67
2023-03-18T23:58:01.739Z,46.34
